Etusivu
METAR-TAF:

METAR-TAF

Lentoasemat :

Hammond Northshore Regional Airport

Hammond, Louisiana, Yhdysvallat

Leveyspiiri: 30-31-15N, Pituuspiiri: 090-25-03W, korkeus merenpinnasta: 13 m

Tämänhetkinen sää

Tämä raportti tehtiin 14 minuuttia sitten, kello 18.15 UTC
Tuuli 18 kn pohjoisesta puuskistuen 25 kn:hen
Lämpötila 6°C
Kosteus 56%
Ilmanpaine 1026 hPa
Näkyvyys: 16.1 km
selkeää

METAR: KHDC 121815Z AUTO 01018G25KT 10SM CLR 06/M02 A3030 RMK AO2 PWINO

Aika: 12:29 (18:29 UTC)

Sääennuste

Tämä raportti tehtiin 1 tunti ja 9 minuuttia sitten, kello 17.20 UTC
Ennuste voimassa 12. päivästä klo 18 UTC - 13. päivään klo 18 UTC
Tuuli 17 kn pohjoisesta puuskistuen 25 kn:hen
Näkyvyys: 10 km
Muutamia pilviä 25000 ft:n korkeudessa
From 13. päivästä klo 0200 UTC
Tuuli 6 kn pohjoisesta
Näkyvyys: 10 km
Muutamia pilviä 20000 ft:n korkeudessa
Muutamia pilviä 25000 ft:n korkeudessa

TAF: KHDC 121720Z 1218/1318 36017G25KT P6SM FEW250 FM130200 01006KT P6SM FEW200 FEW250

Säähavainnot ja -ennusteet yli 4000 lentoasemalta (METAR- ja TAF-raportit).

Käytössä olevat sääasemat on merkitty karttaan keltaisilla ja punaisilla pisteillä.

Aseta hiiri pisteen päälle nähdäksesi sääaseman nimen.

Klikkaa sitten nähdäksesi säähavainnot ja -ennusteet.

Kartan vaihtaminen: klikkaa mustalla rastilla varustettuja vihreitä pisteitä, niin voit zoomata sisään; viivalla varustettua vihreää pistettä, niin voit zoomata ulos tai vihreitä nuolia, niin pääset viereisille kartoille.


METAR-TAF: